sensor_id;sensor_type;location;lat;lon;timestamp;temperature;humidity
64652;HTU21D;51062;45.120;37.660;2022-09-01T02:51:55;21.21;69.26
64652;HTU21D;51062;45.120;37.660;2022-09-01T02:54:26;21.20;69.50
64652;HTU21D;51062;45.120;37.660;2022-09-01T02:56:52;21.22;69.74
64652;HTU21D;51062;45.120;37.660;2022-09-01T02:59:23;21.25;69.87
64652;HTU21D;51062;45.120;37.660;2022-09-01T03:01:52;21.28;69.94
64652;HTU21D;51062;45.120;37.660;2022-09-01T03:04:21;21.32;69.94
64652;HTU21D;51062;45.120;37.660;2022-09-01T03:06:48;21.36;69.96
64652;HTU21D;51062;45.120;37.660;2022-09-01T03:09:17;21.39;70.00
64652;HTU21D;51062;45.120;37.660;2022-09-01T03:11:49;21.49;70.09
64652;HTU21D;51062;45.120;37.660;2022-09-01T03:14:15;21.65;69.91
64652;HTU21D;51062;45.120;37.660;2022-09-01T03:16:42;21.83;69.76
64652;HTU21D;51062;45.120;37.660;2022-09-01T03:19:08;22.05;69.58
64652;HTU21D;51062;45.120;37.660;2022-09-01T03:21:38;22.28;69.40
64652;HTU21D;51062;45.120;37.660;2022-09-01T03:24:11;22.54;69.22
64652;HTU21D;51062;45.120;37.660;2022-09-01T03:26:42;22.88;68.81
64652;HTU21D;51062;45.120;37.660;2022-09-01T03:29:13;23.23;68.38
64652;HTU21D;51062;45.120;37.660;2022-09-01T03:31:40;23.56;67.95
64652;HTU21D;51062;45.120;37.660;2022-09-01T03:34:10;23.91;67.46
64652;HTU21D;51062;45.120;37.660;2022-09-01T03:36:44;24.30;66.93
64652;HTU21D;51062;45.120;37.660;2022-09-01T03:39:18;24.66;66.43
64652;HTU21D;51062;45.120;37.660;2022-09-01T03:41:44;25.01;65.91
64652;HTU21D;51062;45.120;37.660;2022-09-01T03:44:12;25.36;65.27
64652;HTU21D;51062;45.120;37.660;2022-09-01T03:46:43;25.71;64.66
64652;HTU21D;51062;45.120;37.660;2022-09-01T03:49:10;25.99;64.01
64652;HTU21D;51062;45.120;37.660;2022-09-01T03:51:42;26.30;63.54
64652;HTU21D;51062;45.120;37.660;2022-09-01T03:54:10;26.57;63.00
64652;HTU21D;51062;45.120;37.660;2022-09-01T03:56:36;26.89;62.32
64652;HTU21D;51062;45.120;37.660;2022-09-01T03:59:06;27.23;61.67
64652;HTU21D;51062;45.120;37.660;2022-09-01T04:01:33;27.56;60.86
64652;HTU21D;51062;45.120;37.660;2022-09-01T04:04:06;27.91;60.07
64652;HTU21D;51062;45.120;37.660;2022-09-01T04:06:33;28.19;59.45
64652;HTU21D;51062;45.120;37.660;2022-09-01T04:08:59;28.49;58.96
64652;HTU21D;51062;45.120;37.660;2022-09-01T04:11:30;28.82;58.32
64652;HTU21D;51062;45.120;37.660;2022-09-01T04:13:58;29.12;57.42
64652;HTU21D;51062;45.120;37.660;2022-09-01T04:16:26;29.37;56.89
64652;HTU21D;51062;45.120;37.660;2022-09-01T04:19:14;29.72;56.28
64652;HTU21D;51062;45.120;37.660;2022-09-01T04:21:53;30.08;55.71
64652;HTU21D;51062;45.120;37.660;2022-09-01T04:24:22;30.46;54.84
64652;HTU21D;51062;45.120;37.660;2022-09-01T04:26:51;30.76;54.20
64652;HTU21D;51062;45.120;37.660;2022-09-01T04:29:19;30.97;53.35
64652;HTU21D;51062;45.120;37.660;2022-09-01T04:31:57;30.69;52.74
64652;HTU21D;51062;45.120;37.660;2022-09-01T04:34:28;30.16;53.28
64652;HTU21D;51062;45.120;37.660;2022-09-01T04:36:57;29.65;54.16
64652;HTU21D;51062;45.120;37.660;2022-09-01T04:39:23;29.31;54.84
64652;HTU21D;51062;45.120;37.660;2022-09-01T04:41:50;29.30;55.49
64652;HTU21D;51062;45.120;37.660;2022-09-01T04:44:17;29.79;54.79
64652;HTU21D;51062;45.120;37.660;2022-09-01T04:46:45;30.45;54.05
64652;HTU21D;51062;45.120;37.660;2022-09-01T04:49:15;31.14;52.72
64652;HTU21D;51062;45.120;37.660;2022-09-01T04:51:48;31.81;51.27
64652;HTU21D;51062;45.120;37.660;2022-09-01T04:54:15;32.35;49.69
64652;HTU21D;51062;45.120;37.660;2022-09-01T04:56:47;32.76;48.20
64652;HTU21D;51062;45.120;37.660;2022-09-01T04:59:19;33.17;47.29
64652;HTU21D;51062;45.120;37.660;2022-09-01T05:01:50;33.57;46.81
64652;HTU21D;51062;45.120;37.660;2022-09-01T05:04:21;33.90;45.51
64652;HTU21D;51062;45.120;37.660;2022-09-01T05:06:50;34.16;44.80
64652;HTU21D;51062;45.120;37.660;2022-09-01T05:09:19;34.48;44.28
64652;HTU21D;51062;45.120;37.660;2022-09-01T05:11:52;34.80;43.23
64652;HTU21D;51062;45.120;37.660;2022-09-01T05:14:21;35.03;42.37
64652;HTU21D;51062;45.120;37.660;2022-09-01T05:16:48;35.19;41.50
64652;HTU21D;51062;45.120;37.660;2022-09-01T05:19:16;35.41;40.94
64652;HTU21D;51062;45.120;37.660;2022-09-01T05:21:47;35.64;40.42
64652;HTU21D;51062;45.120;37.660;2022-09-01T05:24:18;35.93;39.96
64652;HTU21D;51062;45.120;37.660;2022-09-01T05:26:45;36.23;39.54
64652;HTU21D;51062;45.120;37.660;2022-09-01T05:29:16;36.36;38.32
64652;HTU21D;51062;45.120;37.660;2022-09-01T05:31:47;36.39;38.43
64652;HTU21D;51062;45.120;37.660;2022-09-01T05:34:14;36.57;38.68
64652;HTU21D;51062;45.120;37.660;2022-09-01T05:36:53;36.75;38.04
64652;HTU21D;51062;45.120;37.660;2022-09-01T05:39:22;36.82;37.96
64652;HTU21D;51062;45.120;37.660;2022-09-01T05:41:49;36.88;37.91
64652;HTU21D;51062;45.120;37.660;2022-09-01T05:44:16;37.03;37.74
64652;HTU21D;51062;45.120;37.660;2022-09-01T05:46:43;37.16;37.57
64652;HTU21D;51062;45.120;37.660;2022-09-01T05:49:11;37.26;37.02
64652;HTU21D;51062;45.120;37.660;2022-09-01T05:51:50;37.22;37.21
64652;HTU21D;51062;45.120;37.660;2022-09-01T05:54:25;37.35;37.08
64652;HTU21D;51062;45.120;37.660;2022-09-01T05:56:56;37.56;36.50
64652;HTU21D;51062;45.120;37.660;2022-09-01T05:59:27;37.69;36.02
64652;HTU21D;51062;45.120;37.660;2022-09-01T06:02:23;37.89;35.82
64652;HTU21D;51062;45.120;37.660;2022-09-01T06:04:51;38.08;35.36
64652;HTU21D;51062;45.120;37.660;2022-09-01T06:07:23;38.25;34.72
64652;HTU21D;51062;45.120;37.660;2022-09-01T06:09:55;38.44;34.67
64652;HTU21D;51062;45.120;37.660;2022-09-01T06:12:22;38.61;33.92
64652;HTU21D;51062;45.120;37.660;2022-09-01T06:14:51;38.69;33.88
64652;HTU21D;51062;45.120;37.660;2022-09-01T06:17:21;38.79;33.60
64652;HTU21D;51062;45.120;37.660;2022-09-01T06:19:51;38.35;33.90
64652;HTU21D;51062;45.120;37.660;2022-09-01T06:22:19;37.45;34.60
64652;HTU21D;51062;45.120;37.660;2022-09-01T06:24:46;36.76;35.63
64652;HTU21D;51062;45.120;37.660;2022-09-01T06:27:13;36.12;36.09
64652;HTU21D;51062;45.120;37.660;2022-09-01T06:29:43;35.45;36.65
64652;HTU21D;51062;45.120;37.660;2022-09-01T06:32:10;35.49;36.92
64652;HTU21D;51062;45.120;37.660;2022-09-01T06:34:41;35.94;36.30
64652;HTU21D;51062;45.120;37.660;2022-09-01T06:37:10;35.86;35.97
64652;HTU21D;51062;45.120;37.660;2022-09-01T06:39:41;36.14;35.78
64652;HTU21D;51062;45.120;37.660;2022-09-01T06:42:08;36.59;35.63
64652;HTU21D;51062;45.120;37.660;2022-09-01T06:44:56;36.52;35.28
64652;HTU21D;51062;45.120;37.660;2022-09-01T06:47:22;36.23;35.08
64652;HTU21D;51062;45.120;37.660;2022-09-01T06:49:49;36.00;35.37
64652;HTU21D;51062;45.120;37.660;2022-09-01T06:52:19;36.29;34.70
64652;HTU21D;51062;45.120;37.660;2022-09-01T06:54:47;36.71;33.65
64652;HTU21D;51062;45.120;37.660;2022-09-01T06:57:16;37.01;33.29
64652;HTU21D;51062;45.120;37.660;2022-09-01T06:59:42;37.35;33.25
64652;HTU21D;51062;45.120;37.660;2022-09-01T07:02:08;37.71;32.87
64652;HTU21D;51062;45.120;37.660;2022-09-01T07:04:54;38.16;32.19
64652;HTU21D;51062;45.120;37.660;2022-09-01T07:07:20;38.29;31.22
64652;HTU21D;51062;45.120;37.660;2022-09-01T07:10:05;38.44;31.35
64652;HTU21D;51062;45.120;37.660;2022-09-01T07:12:40;38.76;31.26
64652;HTU21D;51062;45.120;37.660;2022-09-01T07:15:11;38.97;30.08
64652;HTU21D;51062;45.120;37.660;2022-09-01T07:17:49;38.91;29.89
64652;HTU21D;51062;45.120;37.660;2022-09-01T07:20:21;38.96;29.39
64652;HTU21D;51062;45.120;37.660;2022-09-01T07:22:49;39.00;29.48
64652;HTU21D;51062;45.120;37.660;2022-09-01T07:25:16;39.10;29.87
64652;HTU21D;51062;45.120;37.660;2022-09-01T07:27:49;39.32;30.00
64652;HTU21D;51062;45.120;37.660;2022-09-01T07:30:18;39.51;29.94
64652;HTU21D;51062;45.120;37.660;2022-09-01T07:32:45;39.63;29.13
64652;HTU21D;51062;45.120;37.660;2022-09-01T07:35:17;39.58;28.77
64652;HTU21D;51062;45.120;37.660;2022-09-01T07:37:45;39.59;28.75
64652;HTU21D;51062;45.120;37.660;2022-09-01T07:40:16;39.54;28.65
64652;HTU21D;51062;45.120;37.660;2022-09-01T07:43:16;39.41;28.87
64652;HTU21D;51062;45.120;37.660;2022-09-01T07:46:13;39.30;29.00
64652;HTU21D;51062;45.120;37.660;2022-09-01T07:48:39;39.22;28.98
64652;HTU21D;51062;45.120;37.660;2022-09-01T07:51:07;38.99;29.23
64652;HTU21D;51062;45.120;37.660;2022-09-01T07:53:34;38.91;29.68
64652;HTU21D;51062;45.120;37.660;2022-09-01T07:56:07;39.04;29.81
64652;HTU21D;51062;45.120;37.660;2022-09-01T07:58:38;39.11;29.79
64652;HTU21D;51062;45.120;37.660;2022-09-01T08:01:08;39.19;29.93
64652;HTU21D;51062;45.120;37.660;2022-09-01T08:03:38;39.20;29.38
64652;HTU21D;51062;45.120;37.660;2022-09-01T08:06:07;38.97;29.26
64652;HTU21D;51062;45.120;37.660;2022-09-01T08:08:37;38.70;29.54
64652;HTU21D;51062;45.120;37.660;2022-09-01T08:11:06;38.47;29.09
64652;HTU21D;51062;45.120;37.660;2022-09-01T08:13:35;38.01;29.61
64652;HTU21D;51062;45.120;37.660;2022-09-01T08:16:06;37.49;30.48
64652;HTU21D;51062;45.120;37.660;2022-09-01T08:18:33;37.02;31.15
64652;HTU21D;51062;45.120;37.660;2022-09-01T08:21:05;36.54;31.95
64652;HTU21D;51062;45.120;37.660;2022-09-01T08:23:45;36.11;32.83
64652;HTU21D;51062;45.120;37.660;2022-09-01T08:26:15;35.85;33.17
64652;HTU21D;51062;45.120;37.660;2022-09-01T08:28:42;35.58;33.61
64652;HTU21D;51062;45.120;37.660;2022-09-01T08:31:12;35.39;34.36
64652;HTU21D;51062;45.120;37.660;2022-09-01T08:33:40;35.23;34.28
64652;HTU21D;51062;45.120;37.660;2022-09-01T08:36:09;35.00;34.43
64652;HTU21D;51062;45.120;37.660;2022-09-01T08:38:36;34.81;34.43
64652;HTU21D;51062;45.120;37.660;2022-09-01T08:41:03;34.62;34.52
64652;HTU21D;51062;45.120;37.660;2022-09-01T08:46:40;34.30;33.31
64652;HTU21D;51062;45.120;37.660;2022-09-01T08:49:19;34.34;33.83
64652;HTU21D;51062;45.120;37.660;2022-09-01T08:55:11;34.60;34.20
64652;HTU21D;51062;45.120;37.660;2022-09-01T08:57:44;34.71;35.02
64652;HTU21D;51062;45.120;37.660;2022-09-01T09:00:22;34.82;35.57
64652;HTU21D;51062;45.120;37.660;2022-09-01T09:08:39;34.70;36.95
64652;HTU21D;51062;45.120;37.660;2022-09-01T09:14:07;34.61;38.88
64652;HTU21D;51062;45.120;37.660;2022-09-01T09:16:41;34.60;39.66
64652;HTU21D;51062;45.120;37.660;2022-09-01T09:19:34;34.57;40.18
64652;HTU21D;51062;45.120;37.660;2022-09-01T09:22:05;34.65;40.58
64652;HTU21D;51062;45.120;37.660;2022-09-01T09:29:57;34.88;41.06
64652;HTU21D;51062;45.120;37.660;2022-09-01T09:37:43;35.01;40.55
64652;HTU21D;51062;45.120;37.660;2022-09-01T09:45:28;35.19;40.44
64652;HTU21D;51062;45.120;37.660;2022-09-01T09:47:57;35.24;39.97
64652;HTU21D;51062;45.120;37.660;2022-09-01T09:50:25;35.21;39.97
64652;HTU21D;51062;45.120;37.660;2022-09-01T09:53:13;34.98;39.53
64652;HTU21D;51062;45.120;37.660;2022-09-01T09:58:20;34.69;40.41
64652;HTU21D;51062;45.120;37.660;2022-09-01T10:03:38;34.78;40.00
64652;HTU21D;51062;45.120;37.660;2022-09-01T10:06:09;34.75;39.68
64652;HTU21D;51062;45.120;37.660;2022-09-01T10:08:42;34.59;39.92
64652;HTU21D;51062;45.120;37.660;2022-09-01T10:11:43;34.49;40.22
64652;HTU21D;51062;45.120;37.660;2022-09-01T10:14:16;34.51;39.88
64652;HTU21D;51062;45.120;37.660;2022-09-01T10:16:43;34.55;39.71
64652;HTU21D;51062;45.120;37.660;2022-09-01T10:19:12;34.57;39.87
64652;HTU21D;51062;45.120;37.660;2022-09-01T10:21:41;34.62;39.53
64652;HTU21D;51062;45.120;37.660;2022-09-01T10:24:29;34.62;38.61
64652;HTU21D;51062;45.120;37.660;2022-09-01T10:27:01;34.52;38.50
64652;HTU21D;51062;45.120;37.660;2022-09-01T10:29:33;34.46;38.78
64652;HTU21D;51062;45.120;37.660;2022-09-01T10:32:07;34.46;38.56
64652;HTU21D;51062;45.120;37.660;2022-09-01T10:34:36;34.46;38.36
64652;HTU21D;51062;45.120;37.660;2022-09-01T10:37:04;34.46;38.15
64652;HTU21D;51062;45.120;37.660;2022-09-01T10:39:31;34.47;38.16
64652;HTU21D;51062;45.120;37.660;2022-09-01T10:41:58;34.48;38.39
64652;HTU21D;51062;45.120;37.660;2022-09-01T10:44:37;34.49;37.95
64652;HTU21D;51062;45.120;37.660;2022-09-01T10:47:28;34.45;37.19
64652;HTU21D;51062;45.120;37.660;2022-09-01T10:52:54;34.29;37.01
64652;HTU21D;51062;45.120;37.660;2022-09-01T10:57:57;34.15;36.31
64652;HTU21D;51062;45.120;37.660;2022-09-01T11:08:45;33.76;37.89
64652;HTU21D;51062;45.120;37.660;2022-09-01T11:11:40;33.68;38.35
64652;HTU21D;51062;45.120;37.660;2022-09-01T11:14:21;33.60;39.00
64652;HTU21D;51062;45.120;37.660;2022-09-01T11:17:22;33.43;39.60
64652;HTU21D;51062;45.120;37.660;2022-09-01T11:20:09;33.33;40.21
64652;HTU21D;51062;45.120;37.660;2022-09-01T11:22:38;33.27;40.67
64652;HTU21D;51062;45.120;37.660;2022-09-01T11:33:06;33.12;40.77
64652;HTU21D;51062;45.120;37.660;2022-09-01T11:35:36;33.11;40.58
64652;HTU21D;51062;45.120;37.660;2022-09-01T11:38:04;33.09;40.90
64652;HTU21D;51062;45.120;37.660;2022-09-01T11:40:34;33.12;40.87
64652;HTU21D;51062;45.120;37.660;2022-09-01T11:43:07;33.11;40.33
64652;HTU21D;51062;45.120;37.660;2022-09-01T11:45:43;33.05;40.33
64652;HTU21D;51062;45.120;37.660;2022-09-01T11:48:15;33.04;39.90
64652;HTU21D;51062;45.120;37.660;2022-09-01T11:50:42;33.03;39.43
64652;HTU21D;51062;45.120;37.660;2022-09-01T11:53:14;32.99;39.74
64652;HTU21D;51062;45.120;37.660;2022-09-01T11:55:49;33.00;39.89
64652;HTU21D;51062;45.120;37.660;2022-09-01T12:01:11;32.94;40.33
64652;HTU21D;51062;45.120;37.660;2022-09-01T12:03:38;32.86;40.58
64652;HTU21D;51062;45.120;37.660;2022-09-01T12:06:09;32.78;40.73
64652;HTU21D;51062;45.120;37.660;2022-09-01T12:08:41;32.71;40.84
64652;HTU21D;51062;45.120;37.660;2022-09-01T12:11:17;32.64;41.21
64652;HTU21D;51062;45.120;37.660;2022-09-01T12:14:17;32.59;41.83
64652;HTU21D;51062;45.120;37.660;2022-09-01T12:16:42;32.53;42.17
64652;HTU21D;51062;45.120;37.660;2022-09-01T12:19:25;32.47;42.64
64652;HTU21D;51062;45.120;37.660;2022-09-01T12:22:16;32.45;43.20
64652;HTU21D;51062;45.120;37.660;2022-09-01T12:24:50;32.46;43.58
64652;HTU21D;51062;45.120;37.660;2022-09-01T12:27:16;32.44;43.73
64652;HTU21D;51062;45.120;37.660;2022-09-01T12:29:43;32.39;43.96
64652;HTU21D;51062;45.120;37.660;2022-09-01T12:32:29;32.28;44.38
64652;HTU21D;51062;45.120;37.660;2022-09-01T12:35:01;32.14;44.81
64652;HTU21D;51062;45.120;37.660;2022-09-01T12:37:27;32.09;45.21
64652;HTU21D;51062;45.120;37.660;2022-09-01T12:39:55;31.98;45.51
64652;HTU21D;51062;45.120;37.660;2022-09-01T12:44:57;31.80;45.72
64652;HTU21D;51062;45.120;37.660;2022-09-01T12:47:47;31.70;45.47
64652;HTU21D;51062;45.120;37.660;2022-09-01T12:52:52;31.56;45.74
64652;HTU21D;51062;45.120;37.660;2022-09-01T12:55:24;31.46;45.92
64652;HTU21D;51062;45.120;37.660;2022-09-01T12:57:53;31.41;45.89
64652;HTU21D;51062;45.120;37.660;2022-09-01T13:00:24;31.36;45.89
64652;HTU21D;51062;45.120;37.660;2022-09-01T13:05:35;31.19;46.09
64652;HTU21D;51062;45.120;37.660;2022-09-01T13:08:08;31.12;46.47
64652;HTU21D;51062;45.120;37.660;2022-09-01T13:13:08;31.02;47.17
64652;HTU21D;51062;45.120;37.660;2022-09-01T13:15:37;31.00;47.49
64652;HTU21D;51062;45.120;37.660;2022-09-01T13:18:03;30.97;47.71
64652;HTU21D;51062;45.120;37.660;2022-09-01T13:20:29;30.91;47.92
64652;HTU21D;51062;45.120;37.660;2022-09-01T13:22:55;30.83;48.05
64652;HTU21D;51062;45.120;37.660;2022-09-01T13:25:22;30.81;48.16
64652;HTU21D;51062;45.120;37.660;2022-09-01T13:27:49;30.81;48.29
64652;HTU21D;51062;45.120;37.660;2022-09-01T13:30:20;30.77;48.29
64652;HTU21D;51062;45.120;37.660;2022-09-01T13:32:47;30.70;48.38
64652;HTU21D;51062;45.120;37.660;2022-09-01T13:35:16;30.67;48.21
64652;HTU21D;51062;45.120;37.660;2022-09-01T13:37:42;30.67;48.16
64652;HTU21D;51062;45.120;37.660;2022-09-01T13:40:09;30.66;48.19
64652;HTU21D;51062;45.120;37.660;2022-09-01T13:42:44;30.64;48.28
64652;HTU21D;51062;45.120;37.660;2022-09-01T13:45:12;30.63;48.32
64652;HTU21D;51062;45.120;37.660;2022-09-01T13:47:42;30.61;48.49
64652;HTU21D;51062;45.120;37.660;2022-09-01T13:50:10;30.59;48.57
64652;HTU21D;51062;45.120;37.660;2022-09-01T13:52:50;30.56;48.62
64652;HTU21D;51062;45.120;37.660;2022-09-01T13:55:20;30.53;48.71
64652;HTU21D;51062;45.120;37.660;2022-09-01T13:57:48;30.49;48.77
64652;HTU21D;51062;45.120;37.660;2022-09-01T14:00:17;30.48;48.92
64652;HTU21D;51062;45.120;37.660;2022-09-01T14:02:46;30.46;49.05
64652;HTU21D;51062;45.120;37.660;2022-09-01T14:05:15;30.44;49.20
64652;HTU21D;51062;45.120;37.660;2022-09-01T14:07:42;30.44;49.22
64652;HTU21D;51062;45.120;37.660;2022-09-01T14:10:08;30.46;49.19
64652;HTU21D;51062;45.120;37.660;2022-09-01T14:12:34;30.45;49.14
64652;HTU21D;51062;45.120;37.660;2022-09-01T14:15:00;30.41;49.33
64652;HTU21D;51062;45.120;37.660;2022-09-01T14:17:27;30.36;49.53
64652;HTU21D;51062;45.120;37.660;2022-09-01T14:19:53;30.35;49.71
64652;HTU21D;51062;45.120;37.660;2022-09-01T14:22:19;30.30;49.91
64652;HTU21D;51062;45.120;37.660;2022-09-01T14:24:46;30.22;50.12
64652;HTU21D;51062;45.120;37.660;2022-09-01T14:27:12;30.17;50.42
64652;HTU21D;51062;45.120;37.660;2022-09-01T14:29:38;30.10;50.83
64652;HTU21D;51062;45.120;37.660;2022-09-01T14:32:04;30.05;51.04
64652;HTU21D;51062;45.120;37.660;2022-09-01T14:34:33;29.98;51.36
64652;HTU21D;51062;45.120;37.660;2022-09-01T14:36:59;29.92;51.63
64652;HTU21D;51062;45.120;37.660;2022-09-01T14:39:26;29.85;52.17
64652;HTU21D;51062;45.120;37.660;2022-09-01T14:41:53;29.71;52.38
64652;HTU21D;51062;45.120;37.660;2022-09-01T14:44:19;29.64;52.53
64652;HTU21D;51062;45.120;37.660;2022-09-01T14:46:45;29.57;52.66
64652;HTU21D;51062;45.120;37.660;2022-09-01T14:49:12;29.51;52.78
64652;HTU21D;51062;45.120;37.660;2022-09-01T14:51:39;29.44;53.00
64652;HTU21D;51062;45.120;37.660;2022-09-01T14:54:05;29.37;53.33
64652;HTU21D;51062;45.120;37.660;2022-09-01T14:56:32;29.29;53.57
64652;HTU21D;51062;45.120;37.660;2022-09-01T14:58:58;29.21;53.78
64652;HTU21D;51062;45.120;37.660;2022-09-01T15:01:26;29.16;54.02
64652;HTU21D;51062;45.120;37.660;2022-09-01T15:03:52;29.09;54.17
64652;HTU21D;51062;45.120;37.660;2022-09-01T15:06:20;29.03;54.47
64652;HTU21D;51062;45.120;37.660;2022-09-01T15:08:47;28.99;54.58
64652;HTU21D;51062;45.120;37.660;2022-09-01T15:11:16;28.93;54.83
64652;HTU21D;51062;45.120;37.660;2022-09-01T15:13:44;28.85;55.04
64652;HTU21D;51062;45.120;37.660;2022-09-01T15:16:19;28.79;55.27
64652;HTU21D;51062;45.120;37.660;2022-09-01T15:18:46;28.73;55.22
64652;HTU21D;51062;45.120;37.660;2022-09-01T15:23:46;28.62;55.46
64652;HTU21D;51062;45.120;37.660;2022-09-01T15:26:16;28.55;55.53
64652;HTU21D;51062;45.120;37.660;2022-09-01T15:28:43;28.49;55.57
64652;HTU21D;51062;45.120;37.660;2022-09-01T15:31:10;28.42;55.58
64652;HTU21D;51062;45.120;37.660;2022-09-01T15:33:38;28.33;55.71
64652;HTU21D;51062;45.120;37.660;2022-09-01T15:36:05;28.26;55.74
64652;HTU21D;51062;45.120;37.660;2022-09-01T15:38:32;28.17;55.79
64652;HTU21D;51062;45.120;37.660;2022-09-01T15:40:58;28.09;55.86
64652;HTU21D;51062;45.120;37.660;2022-09-01T15:43:27;28.01;55.90
64652;HTU21D;51062;45.120;37.660;2022-09-01T15:45:55;27.94;55.97
64652;HTU21D;51062;45.120;37.660;2022-09-01T15:48:24;27.86;56.04
64652;HTU21D;51062;45.120;37.660;2022-09-01T15:50:50;27.80;56.16
64652;HTU21D;51062;45.120;37.660;2022-09-01T15:53:16;27.70;56.37
64652;HTU21D;51062;45.120;37.660;2022-09-01T15:55:45;27.65;56.57
64652;HTU21D;51062;45.120;37.660;2022-09-01T15:58:15;27.58;56.71
64652;HTU21D;51062;45.120;37.660;2022-09-01T16:00:42;27.47;56.90
64652;HTU21D;51062;45.120;37.660;2022-09-01T16:03:09;27.40;57.08
64652;HTU21D;51062;45.120;37.660;2022-09-01T16:05:37;27.31;57.27
64652;HTU21D;51062;45.120;37.660;2022-09-01T16:08:05;27.24;57.44
64652;HTU21D;51062;45.120;37.660;2022-09-01T16:10:35;27.15;57.63
64652;HTU21D;51062;45.120;37.660;2022-09-01T16:13:02;27.07;57.80
64652;HTU21D;51062;45.120;37.660;2022-09-01T16:15:28;26.97;58.02
64652;HTU21D;51062;45.120;37.660;2022-09-01T16:18:12;26.87;58.26
64652;HTU21D;51062;45.120;37.660;2022-09-01T16:20:54;26.78;58.39
64652;HTU21D;51062;45.120;37.660;2022-09-01T16:23:32;26.68;58.77
64652;HTU21D;51062;45.120;37.660;2022-09-01T16:26:00;26.61;58.81
64652;HTU21D;51062;45.120;37.660;2022-09-01T16:28:33;26.52;59.12
64652;HTU21D;51062;45.120;37.660;2022-09-01T16:31:11;26.47;59.25
64652;HTU21D;51062;45.120;37.660;2022-09-01T16:33:38;26.41;59.28
64652;HTU21D;51062;45.120;37.660;2022-09-01T16:36:27;26.38;59.44
64652;HTU21D;51062;45.120;37.660;2022-09-01T16:47:05;26.18;59.86
64652;HTU21D;51062;45.120;37.660;2022-09-01T16:49:57;26.13;59.93
64652;HTU21D;51062;45.120;37.660;2022-09-01T16:52:35;26.08;60.15
64652;HTU21D;51062;45.120;37.660;2022-09-01T16:55:22;26.04;60.17
64652;HTU21D;51062;45.120;37.660;2022-09-01T17:00:20;25.95;60.47
64652;HTU21D;51062;45.120;37.660;2022-09-01T17:03:05;25.90;60.70
64652;HTU21D;51062;45.120;37.660;2022-09-01T17:05:39;25.86;60.85
64652;HTU21D;51062;45.120;37.660;2022-09-01T17:10:49;25.79;61.02
64652;HTU21D;51062;45.120;37.660;2022-09-01T17:13:47;25.76;60.98
64652;HTU21D;51062;45.120;37.660;2022-09-01T17:16:26;25.72;61.10
64652;HTU21D;51062;45.120;37.660;2022-09-01T17:18:55;25.68;61.12
64652;HTU21D;51062;45.120;37.660;2022-09-01T17:21:29;25.66;61.24
64652;HTU21D;51062;45.120;37.660;2022-09-01T17:24:05;25.62;61.31
64652;HTU21D;51062;45.120;37.660;2022-09-01T17:26:40;25.61;61.42
64652;HTU21D;51062;45.120;37.660;2022-09-01T17:29:27;25.57;61.57
64652;HTU21D;51062;45.120;37.660;2022-09-01T17:32:04;25.52;61.60
64652;HTU21D;51062;45.120;37.660;2022-09-01T17:34:57;25.48;61.65
64652;HTU21D;51062;45.120;37.660;2022-09-01T17:43:47;25.34;61.81
64652;HTU21D;51062;45.120;37.660;2022-09-01T18:00:06;25.18;62.40
64652;HTU21D;51062;45.120;37.660;2022-09-01T18:06:08;25.07;62.46
64652;HTU21D;51062;45.120;37.660;2022-09-01T18:08:38;25.05;62.70
64652;HTU21D;51062;45.120;37.660;2022-09-01T18:11:46;25.00;62.80
64652;HTU21D;51062;45.120;37.660;2022-09-01T18:14:17;24.98;62.86
64652;HTU21D;51062;45.120;37.660;2022-09-01T18:19:37;24.90;63.25
64652;HTU21D;51062;45.120;37.660;2022-09-01T18:22:07;24.87;63.34
64652;HTU21D;51062;45.120;37.660;2022-09-01T18:24:55;24.84;63.56
64652;HTU21D;51062;45.120;37.660;2022-09-01T18:27:23;24.79;63.59
64652;HTU21D;51062;45.120;37.660;2022-09-01T18:29:50;24.78;63.76
64652;HTU21D;51062;45.120;37.660;2022-09-01T18:40:23;24.66;64.25
64652;HTU21D;51062;45.120;37.660;2022-09-01T18:42:55;24.63;64.30
64652;HTU21D;51062;45.120;37.660;2022-09-01T18:45:49;24.62;64.38
64652;HTU21D;51062;45.120;37.660;2022-09-01T18:51:20;24.59;64.53
64652;HTU21D;51062;45.120;37.660;2022-09-01T18:54:19;24.56;64.54
64652;HTU21D;51062;45.120;37.660;2022-09-01T18:57:03;24.57;64.68
64652;HTU21D;51062;45.120;37.660;2022-09-01T19:00:10;24.55;64.68
64652;HTU21D;51062;45.120;37.660;2022-09-01T19:11:05;24.40;65.08
64652;HTU21D;51062;45.120;37.660;2022-09-01T19:21:42;24.17;65.72
64652;HTU21D;51062;45.120;37.660;2022-09-01T19:24:22;24.14;66.11
64652;HTU21D;51062;45.120;37.660;2022-09-01T19:26:54;24.13;66.11
64652;HTU21D;51062;45.120;37.660;2022-09-01T19:29:46;24.14;66.23
64652;HTU21D;51062;45.120;37.660;2022-09-01T19:32:14;24.11;66.31
64652;HTU21D;51062;45.120;37.660;2022-09-01T19:34:49;24.10;66.56
64652;HTU21D;51062;45.120;37.660;2022-09-01T19:37:16;24.09;66.52
64652;HTU21D;51062;45.120;37.660;2022-09-01T19:39:44;24.06;66.70
64652;HTU21D;51062;45.120;37.660;2022-09-01T19:42:34;24.05;66.86
64652;HTU21D;51062;45.120;37.660;2022-09-01T19:52:58;24.02;67.16
64652;HTU21D;51062;45.120;37.660;2022-09-01T19:55:38;24.01;67.07
64652;HTU21D;51062;45.120;37.660;2022-09-01T19:58:20;23.97;67.26
64652;HTU21D;51062;45.120;37.660;2022-09-01T20:00:58;23.95;67.34
64652;HTU21D;51062;45.120;37.660;2022-09-01T20:03:33;23.92;67.52
64652;HTU21D;51062;45.120;37.660;2022-09-01T20:06:32;23.87;67.44
64652;HTU21D;51062;45.120;37.660;2022-09-01T20:09:09;23.86;67.61
64652;HTU21D;51062;45.120;37.660;2022-09-01T20:14:09;23.82;67.67
64652;HTU21D;51062;45.120;37.660;2022-09-01T20:16:44;23.80;67.93
64652;HTU21D;51062;45.120;37.660;2022-09-01T20:19:13;23.77;67.83
64652;HTU21D;51062;45.120;37.660;2022-09-01T20:21:46;23.75;68.01
64652;HTU21D;51062;45.120;37.660;2022-09-01T20:24:35;23.73;67.97
64652;HTU21D;51062;45.120;37.660;2022-09-01T20:30:18;23.68;68.03
64652;HTU21D;51062;45.120;37.660;2022-09-01T20:33:00;23.64;68.14
64652;HTU21D;51062;45.120;37.660;2022-09-01T20:38:32;23.56;68.23
64652;HTU21D;51062;45.120;37.660;2022-09-01T20:41:28;23.53;68.26
64652;HTU21D;51062;45.120;37.660;2022-09-01T20:44:01;23.49;68.31
64652;HTU21D;51062;45.120;37.660;2022-09-01T20:46:30;23.45;68.33
64652;HTU21D;51062;45.120;37.660;2022-09-01T20:48:57;23.43;68.40
64652;HTU21D;51062;45.120;37.660;2022-09-01T20:51:40;23.39;68.56
64652;HTU21D;51062;45.120;37.660;2022-09-01T20:54:23;23.35;68.58
64652;HTU21D;51062;45.120;37.660;2022-09-01T20:57:10;23.29;68.68
64652;HTU21D;51062;45.120;37.660;2022-09-01T20:59:44;23.24;68.71
64652;HTU21D;51062;45.120;37.660;2022-09-01T21:02:27;23.20;68.80